createdAt,value
2022-09-23T00:02:03.597Z,24.65
2022-09-23T00:05:07.029Z,19.42
2022-09-23T00:08:11.806Z,16.65
2022-09-23T00:11:17.384Z,19.30
2022-09-23T00:14:21.512Z,17.20
2022-09-23T00:17:23.678Z,15.45
2022-09-23T00:20:26.017Z,16.30
2022-09-23T00:23:28.159Z,16.60
2022-09-23T00:26:30.313Z,15.03
2022-09-23T00:29:33.578Z,16.77
2022-09-23T00:32:36.621Z,14.95
2022-09-23T00:35:38.791Z,14.43
2022-09-23T00:38:41.603Z,14.75
2022-09-23T00:41:43.857Z,12.23
2022-09-23T00:44:56.188Z,15.27
2022-09-23T00:48:01.501Z,13.70
2022-09-23T00:51:04.913Z,14.40
2022-09-23T00:54:07.438Z,14.85
2022-09-23T00:57:11.230Z,13.90
2022-09-23T01:00:14.035Z,14.40
2022-09-23T01:03:16.344Z,12.90
2022-09-23T01:06:18.553Z,14.40
2022-09-23T01:09:22.202Z,15.65
2022-09-23T01:12:24.323Z,16.80
2022-09-23T01:15:48.869Z,16.63
2022-09-23T01:19:05.620Z,16.17
2022-09-23T01:22:17.600Z,19.05
2022-09-23T01:25:25.724Z,14.68
2022-09-23T01:28:55.604Z,14.80
2022-09-23T01:32:03.587Z,15.40
2022-09-23T01:35:27.200Z,13.60
2022-09-23T01:38:29.386Z,14.13
2022-09-23T01:41:49.556Z,16.25
2022-09-23T01:44:57.148Z,16.10
2022-09-23T01:48:39.277Z,13.68
2022-09-23T01:51:51.136Z,13.70
2022-09-23T01:55:00.293Z,12.60
2022-09-23T01:58:10.100Z,13.95
2022-09-23T02:01:16.846Z,13.23
2022-09-23T02:04:32.900Z,11.77
2022-09-23T02:07:42.553Z,13.93
2022-09-23T02:10:47.569Z,13.77
2022-09-23T02:14:10.700Z,14.25
2022-09-23T02:17:17.421Z,15.03
2022-09-23T02:20:28.216Z,13.52
2022-09-23T02:23:35.278Z,12.32
2022-09-23T02:26:45.412Z,12.23
2022-09-23T02:30:11.300Z,15.45
2022-09-23T02:33:43.673Z,14.40
2022-09-23T02:37:32.159Z,12.35
2022-09-23T02:40:53.564Z,13.82
2022-09-23T02:44:09.203Z,14.38
2022-09-23T02:47:11.422Z,14.88
2022-09-23T02:50:13.916Z,14.10
2022-09-23T02:53:16.265Z,13.68
2022-09-23T02:56:22.358Z,14.50
2022-09-23T02:59:24.890Z,15.25
2022-09-23T03:02:30.232Z,16.42
2022-09-23T03:05:37.905Z,17.60
2022-09-23T03:08:51.012Z,16.45
2022-09-23T03:12:01.977Z,19.48
2022-09-23T03:15:07.314Z,15.32
2022-09-23T03:18:35.049Z,14.30
2022-09-23T03:21:46.319Z,16.37
2022-09-23T03:24:53.285Z,16.30
2022-09-23T03:27:58.529Z,15.50
2022-09-23T03:31:00.803Z,16.40
2022-09-23T03:34:06.676Z,13.98
2022-09-23T03:37:35.063Z,16.87
2022-09-23T03:40:43.709Z,16.13
2022-09-23T03:43:46.480Z,13.80
2022-09-23T03:46:51.636Z,14.32
2022-09-23T03:49:54.273Z,14.82
2022-09-23T03:52:56.498Z,14.00
2022-09-23T03:55:58.865Z,15.38
2022-09-23T03:59:01.176Z,15.30
2022-09-23T04:02:03.769Z,13.60
2022-09-23T04:05:06.855Z,15.05
2022-09-23T04:08:08.989Z,15.73
2022-09-23T04:11:11.285Z,14.57
2022-09-23T04:14:13.590Z,14.98
2022-09-23T04:17:16.005Z,14.43
2022-09-23T04:20:19.319Z,14.27
2022-09-23T04:23:21.450Z,15.33
2022-09-23T04:26:23.651Z,14.88
2022-09-23T04:29:26.314Z,12.68
2022-09-23T04:32:28.468Z,16.73
2022-09-23T04:35:30.657Z,16.70
2022-09-23T04:38:32.910Z,15.70
2022-09-23T04:41:35.103Z,16.50
2022-09-23T04:44:38.964Z,14.40
2022-09-23T04:47:41.134Z,15.35
2022-09-23T04:50:43.580Z,15.10
2022-09-23T04:53:47.800Z,15.37
2022-09-23T04:56:50.098Z,13.38
2022-09-23T04:59:56.145Z,15.05
2022-09-23T05:02:59.026Z,16.98
2022-09-23T05:06:02.088Z,17.17
2022-09-23T05:09:07.067Z,16.80
2022-09-23T05:12:09.455Z,18.33
2022-09-23T05:15:13.123Z,18.75
2022-09-23T05:18:20.185Z,19.77
2022-09-23T05:21:24.653Z,23.45
2022-09-23T05:24:27.641Z,31.23
2022-09-23T05:27:29.818Z,30.08
2022-09-23T05:30:32.222Z,22.35
2022-09-23T05:33:35.977Z,22.95
2022-09-23T05:36:39.275Z,19.65
2022-09-23T05:39:41.544Z,14.77
2022-09-23T05:42:43.781Z,15.07
2022-09-23T05:45:45.958Z,14.40
2022-09-23T05:48:48.273Z,14.02
2022-09-23T05:51:50.490Z,15.07
2022-09-23T05:54:53.423Z,15.90
2022-09-23T05:57:55.637Z,15.00
2022-09-23T06:00:58.121Z,17.27
2022-09-23T06:04:01.704Z,15.80
2022-09-23T06:07:04.019Z,19.73
2022-09-23T06:10:06.833Z,18.67
2022-09-23T06:13:09.828Z,19.10
2022-09-23T06:16:13.880Z,19.52
2022-09-23T06:19:16.175Z,22.17
2022-09-23T06:22:18.770Z,23.60
2022-09-23T06:25:23.090Z,26.57
2022-09-23T06:28:25.255Z,17.23
2022-09-23T06:31:27.468Z,16.55
2022-09-23T06:34:30.777Z,11.70
2022-09-23T06:37:34.337Z,10.90
2022-09-23T06:40:36.607Z,13.27
2022-09-23T06:43:39.030Z,11.23
2022-09-23T06:46:41.581Z,10.02
2022-09-23T06:49:44.223Z,8.77
2022-09-23T06:52:56.066Z,10.85
2022-09-23T06:56:06.430Z,9.83
2022-09-23T06:59:10.922Z,10.35
2022-09-23T07:02:13.429Z,11.30
2022-09-23T07:05:17.283Z,10.40
2022-09-23T07:08:19.497Z,9.13
2022-09-23T07:11:22.613Z,11.20
2022-09-23T07:14:24.975Z,10.75
2022-09-23T07:17:27.491Z,10.40
2022-09-23T07:20:29.745Z,6.95
2022-09-23T07:23:33.543Z,7.22
2022-09-23T07:26:36.500Z,8.10
2022-09-23T07:29:47.948Z,7.32
2022-09-23T07:32:52.462Z,6.30
2022-09-23T07:35:55.716Z,6.80
2022-09-23T07:39:02.832Z,6.78
2022-09-23T07:42:05.436Z,7.80
2022-09-23T07:45:09.089Z,8.15
2022-09-23T07:48:11.561Z,6.00
2022-09-23T07:51:18.412Z,7.68
2022-09-23T07:54:21.562Z,6.57
2022-09-23T07:57:24.119Z,5.63
2022-09-23T08:00:27.022Z,5.70
2022-09-23T08:03:29.368Z,6.03
2022-09-23T08:06:32.142Z,7.53
2022-09-23T08:09:41.846Z,5.70
2022-09-23T08:12:44.091Z,5.50
2022-09-23T08:15:50.964Z,5.97
2022-09-23T08:18:57.011Z,5.30
2022-09-23T08:21:59.277Z,6.95
2022-09-23T08:25:01.478Z,7.38
2022-09-23T08:28:03.717Z,5.57
2022-09-23T08:31:05.966Z,5.45
2022-09-23T08:34:08.977Z,5.15
2022-09-23T08:37:11.467Z,5.38
2022-09-23T08:40:14.577Z,6.13
2022-09-23T08:43:29.428Z,7.10
2022-09-23T08:46:35.476Z,5.20
2022-09-23T08:50:07.293Z,5.63
2022-09-23T08:53:31.577Z,5.75
2022-09-23T08:56:35.549Z,5.13
2022-09-23T08:59:43.221Z,5.00
2022-09-23T09:02:45.784Z,5.30
2022-09-23T09:05:54.214Z,5.60
2022-09-23T09:09:01.431Z,4.70
2022-09-23T09:12:19.164Z,4.70
2022-09-23T09:15:25.025Z,4.90
2022-09-23T09:18:31.392Z,6.00
2022-09-23T09:21:38.988Z,3.78
2022-09-23T09:24:45.977Z,5.15
2022-09-23T09:27:49.177Z,4.88
2022-09-23T09:30:56.293Z,4.90
2022-09-23T09:34:05.807Z,5.40
2022-09-23T09:37:12.988Z,4.63
2022-09-23T09:40:17.632Z,5.28
2022-09-23T09:43:23.718Z,5.57
2022-09-23T09:46:51.717Z,7.07
2022-09-23T09:50:10.118Z,5.00
2022-09-23T09:53:36.194Z,5.10
2022-09-23T09:56:40.236Z,5.47
2022-09-23T09:59:44.525Z,7.88
2022-09-23T10:02:48.027Z,4.63
2022-09-23T10:05:52.560Z,4.40
2022-09-23T10:09:17.765Z,4.70
2022-09-23T10:12:22.495Z,4.22
2022-09-23T10:15:35.014Z,4.88
2022-09-23T10:18:48.238Z,5.53
2022-09-23T10:22:00.233Z,5.00
2022-09-23T10:25:08.865Z,4.80
2022-09-23T10:28:37.665Z,4.80
2022-09-23T10:31:40.659Z,5.13
2022-09-23T10:34:44.567Z,5.87
2022-09-23T10:37:57.287Z,5.03
2022-09-23T10:41:18.466Z,5.38
2022-09-23T10:44:42.234Z,5.55
2022-09-23T10:48:10.256Z,5.68
2022-09-23T10:51:53.765Z,5.53
2022-09-23T10:55:04.957Z,5.55
2022-09-23T10:58:17.528Z,5.45
2022-09-23T11:01:40.799Z,12.35
2022-09-23T11:05:19.900Z,5.80
2022-09-23T11:08:43.443Z,4.90
2022-09-23T11:12:07.412Z,7.00
2022-09-23T11:15:28.351Z,4.95
2022-09-23T11:18:37.018Z,4.70
2022-09-23T11:21:58.347Z,5.72
2022-09-23T11:25:06.838Z,5.13
2022-09-23T11:28:30.303Z,6.00
2022-09-23T11:31:48.410Z,4.30
2022-09-23T11:35:11.697Z,6.40
2022-09-23T11:38:25.031Z,5.75
2022-09-23T11:41:33.269Z,5.17
2022-09-23T11:44:59.928Z,3.63
2022-09-23T11:48:07.584Z,4.07
2022-09-23T11:51:16.319Z,3.40
2022-09-23T11:54:22.854Z,4.28
2022-09-23T11:57:47.020Z,3.83
2022-09-23T12:01:00.640Z,6.30
2022-09-23T12:04:20.827Z,3.63
2022-09-23T12:07:39.675Z,3.15
2022-09-23T12:11:00.109Z,4.47
2022-09-23T12:14:23.767Z,4.23
2022-09-23T12:17:37.992Z,3.40
2022-09-23T12:21:27.445Z,3.60
2022-09-23T12:24:56.792Z,4.25
2022-09-23T12:28:12.546Z,4.50
2022-09-23T12:31:19.786Z,4.63
2022-09-23T12:34:27.525Z,4.78
2022-09-23T12:37:36.313Z,5.88
2022-09-23T12:40:41.795Z,5.03
2022-09-23T12:43:55.340Z,4.05
2022-09-23T12:47:24.849Z,5.00
2022-09-23T12:50:48.879Z,5.25
2022-09-23T12:53:59.894Z,4.82
2022-09-23T12:57:03.569Z,5.15
2022-09-23T13:00:12.861Z,4.88
2022-09-23T13:03:34.709Z,4.63
2022-09-23T13:06:51.742Z,5.05
2022-09-23T13:10:03.763Z,4.50
2022-09-23T13:13:06.427Z,5.30
2022-09-23T13:16:14.669Z,3.85
2022-09-23T13:19:26.017Z,4.40
2022-09-23T13:22:54.360Z,4.85
2022-09-23T13:25:58.790Z,4.13
2022-09-23T13:29:01.149Z,4.80
2022-09-23T13:32:04.010Z,4.00
2022-09-23T13:35:47.692Z,6.43
2022-09-23T13:38:49.904Z,3.85
2022-09-23T13:41:59.212Z,4.55
2022-09-23T13:45:01.479Z,4.40
2022-09-23T13:48:07.437Z,4.32
2022-09-23T13:51:12.130Z,6.33
2022-09-23T13:54:32.417Z,5.13
2022-09-23T13:57:35.129Z,4.80
2022-09-23T14:00:39.659Z,3.72
2022-09-23T14:03:41.865Z,4.82
2022-09-23T14:06:45.084Z,5.47
2022-09-23T14:09:49.339Z,4.93
2022-09-23T14:12:52.869Z,4.18
2022-09-23T14:15:59.299Z,11.15
2022-09-23T14:19:01.908Z,4.63
2022-09-23T14:22:04.147Z,6.07
2022-09-23T14:25:13.666Z,14.80
2022-09-23T14:28:24.541Z,8.07
2022-09-23T14:31:26.830Z,7.45
2022-09-23T14:34:51.381Z,6.53
2022-09-23T14:38:17.062Z,5.50
2022-09-23T14:41:26.461Z,5.28
2022-09-23T14:44:29.599Z,5.55
2022-09-23T14:47:33.101Z,6.43
2022-09-23T14:50:47.065Z,6.90
2022-09-23T14:53:49.269Z,5.43
2022-09-23T14:56:54.164Z,4.85
2022-09-23T15:00:16.770Z,4.63
2022-09-23T15:03:21.166Z,5.53
2022-09-23T15:06:24.139Z,5.15
2022-09-23T15:09:38.314Z,4.97
2022-09-23T15:12:44.575Z,4.78
2022-09-23T15:15:47.114Z,5.05
2022-09-23T15:18:54.438Z,4.90
2022-09-23T15:21:56.933Z,4.72
2022-09-23T15:25:20.971Z,4.67
2022-09-23T15:28:25.293Z,5.63
2022-09-23T15:31:27.627Z,5.32
2022-09-23T15:34:31.301Z,4.68
2022-09-23T15:37:36.361Z,5.45
2022-09-23T15:40:39.551Z,4.60
2022-09-23T15:43:42.242Z,5.15
2022-09-23T15:46:50.124Z,6.30
2022-09-23T15:49:52.329Z,7.07
2022-09-23T15:52:54.472Z,5.43
2022-09-23T15:55:58.646Z,6.50
2022-09-23T15:59:00.944Z,5.50
2022-09-23T16:02:05.783Z,5.20
2022-09-23T16:05:36.879Z,6.65
2022-09-23T16:08:41.246Z,5.28
2022-09-23T16:11:48.474Z,8.20
2022-09-23T16:14:50.779Z,10.13
2022-09-23T16:17:52.954Z,6.60
2022-09-23T16:20:55.331Z,8.60
2022-09-23T16:23:59.329Z,9.13
2022-09-23T16:27:03.775Z,5.90
2022-09-23T16:30:07.017Z,8.43
2022-09-23T16:33:09.197Z,7.32
2022-09-23T16:36:21.171Z,7.78
2022-09-23T16:39:23.465Z,8.13
2022-09-23T16:42:25.960Z,10.60
2022-09-23T16:45:28.894Z,8.65
2022-09-23T16:48:31.206Z,14.70
2022-09-23T16:51:40.307Z,25.17
2022-09-23T16:54:43.427Z,23.63
2022-09-23T16:57:45.720Z,19.40
2022-09-23T17:01:13.831Z,15.90
2022-09-23T17:04:18.312Z,25.83
2022-09-23T17:07:21.136Z,22.23
2022-09-23T17:10:24.086Z,22.88
2022-09-23T17:13:27.768Z,26.13
2022-09-23T17:16:31.874Z,32.80
2022-09-23T17:19:41.338Z,18.48
2022-09-23T17:22:43.788Z,16.80
2022-09-23T17:25:52.579Z,15.15
2022-09-23T17:28:56.903Z,12.10
2022-09-23T17:32:01.393Z,12.80
2022-09-23T17:35:05.136Z,11.55
2022-09-23T17:38:07.569Z,16.65
2022-09-23T17:41:09.971Z,14.05
2022-09-23T17:44:12.390Z,13.80
2022-09-23T17:47:14.627Z,15.13
2022-09-23T17:50:17.543Z,15.75
2022-09-23T17:53:20.360Z,15.30
2022-09-23T17:56:30.416Z,17.40
2022-09-23T17:59:33.312Z,17.63
2022-09-23T18:02:37.556Z,19.42
2022-09-23T18:05:41.031Z,17.98
2022-09-23T18:08:45.762Z,18.35
2022-09-23T18:11:50.505Z,17.80
2022-09-23T18:14:54.309Z,17.03
2022-09-23T18:17:58.427Z,17.77
2022-09-23T18:21:03.150Z,14.07
2022-09-23T18:24:30.741Z,17.15
2022-09-23T18:27:29.820Z,17.13
2022-09-23T18:30:33.743Z,12.67
2022-09-23T18:33:37.028Z,14.15
2022-09-23T18:36:40.953Z,12.05
2022-09-23T18:39:44.959Z,12.95
2022-09-23T18:42:48.356Z,12.20
2022-09-23T18:45:58.147Z,13.50
2022-09-23T18:49:19.842Z,14.77
2022-09-23T18:52:22.274Z,13.55
2022-09-23T18:55:25.015Z,16.08
2022-09-23T18:58:27.194Z,12.30
2022-09-23T19:01:29.681Z,14.37
2022-09-23T19:04:31.979Z,11.75
2022-09-23T19:07:37.443Z,11.85
2022-09-23T19:10:40.242Z,11.00
2022-09-23T19:13:54.187Z,12.73
2022-09-23T19:16:56.418Z,12.20
2022-09-23T19:19:58.761Z,11.82
2022-09-23T19:23:01.634Z,10.73
2022-09-23T19:26:10.568Z,11.48
2022-09-23T19:29:15.916Z,10.45
2022-09-23T19:32:18.323Z,13.23
2022-09-23T19:35:20.519Z,12.65
2022-09-23T19:38:22.746Z,12.32
2022-09-23T19:41:26.012Z,12.52
2022-09-23T19:44:28.234Z,12.70
2022-09-23T19:47:31.231Z,12.07
2022-09-23T19:50:38.034Z,11.48
2022-09-23T19:53:47.484Z,12.27
2022-09-23T19:56:50.165Z,11.63
2022-09-23T19:59:52.348Z,59.58
2022-09-23T20:02:55.089Z,124.83
2022-09-23T20:05:57.457Z,80.55
2022-09-23T20:09:00.930Z,88.35
2022-09-23T20:12:03.167Z,28.13
2022-09-23T20:15:05.844Z,33.15
2022-09-23T20:18:09.950Z,36.73
2022-09-23T20:21:14.028Z,23.33
2022-09-23T20:24:16.171Z,18.10
2022-09-23T20:27:18.466Z,16.83
2022-09-23T20:30:21.533Z,19.45
2022-09-23T20:33:23.920Z,22.93
2022-09-23T20:36:27.859Z,19.05
2022-09-23T20:39:30.113Z,18.67
2022-09-23T20:42:32.302Z,18.50
2022-09-23T20:45:34.558Z,19.05
2022-09-23T20:48:36.736Z,17.17
2022-09-23T20:51:39.374Z,17.25
2022-09-23T20:54:42.172Z,20.58
2022-09-23T20:57:45.242Z,21.58
2022-09-23T21:00:47.436Z,21.33
2022-09-23T21:03:50.327Z,18.73
2022-09-23T21:06:53.387Z,21.13
2022-09-23T21:10:06.873Z,19.67
2022-09-23T21:13:09.681Z,21.02
2022-09-23T21:16:14.393Z,22.05
2022-09-23T21:19:20.078Z,20.30
2022-09-23T21:22:22.708Z,19.30
2022-09-23T21:25:28.497Z,20.08
2022-09-23T21:28:39.481Z,20.45
2022-09-23T21:31:42.495Z,21.27
2022-09-23T21:34:44.763Z,21.83
2022-09-23T21:37:47.162Z,21.02
2022-09-23T21:40:58.556Z,22.48
2022-09-23T21:44:04.626Z,20.05
2022-09-23T21:47:07.083Z,24.17
2022-09-23T21:50:09.587Z,24.80
2022-09-23T21:53:11.768Z,22.73
2022-09-23T21:56:20.440Z,24.30
2022-09-23T21:59:23.283Z,24.67
2022-09-23T22:02:25.431Z,23.48
2022-09-23T22:05:27.568Z,27.10
2022-09-23T22:08:36.793Z,25.25
2022-09-23T22:11:58.554Z,30.45
2022-09-23T22:15:00.719Z,29.80
2022-09-23T22:18:05.304Z,28.90
2022-09-23T22:21:07.485Z,30.83
2022-09-23T22:24:10.574Z,33.70
2022-09-23T22:27:15.668Z,31.40
2022-09-23T22:30:37.041Z,30.35
2022-09-23T22:33:39.475Z,28.60
2022-09-23T22:36:41.713Z,27.17
2022-09-23T22:39:44.209Z,27.73
2022-09-23T22:42:46.610Z,31.52
2022-09-23T22:45:50.883Z,32.45
2022-09-23T22:48:53.480Z,36.33
2022-09-23T22:51:55.641Z,38.13
2022-09-23T22:54:57.867Z,37.55
2022-09-23T22:58:15.291Z,40.08
2022-09-23T23:01:23.730Z,40.13
2022-09-23T23:04:26.596Z,37.13
2022-09-23T23:07:28.734Z,35.37
2022-09-23T23:10:31.236Z,35.78
2022-09-23T23:13:34.225Z,38.00
2022-09-23T23:16:36.888Z,37.92
2022-09-23T23:19:39.164Z,37.17
2022-09-23T23:22:41.341Z,37.83
2022-09-23T23:25:43.509Z,41.92
2022-09-23T23:28:46.042Z,46.92
2022-09-23T23:31:48.614Z,45.67
2022-09-23T23:34:50.842Z,50.10
2022-09-23T23:37:53.003Z,51.53
2022-09-23T23:40:56.375Z,55.08
2022-09-23T23:44:00.554Z,58.63
2022-09-23T23:47:02.948Z,71.93
2022-09-23T23:50:05.621Z,86.68
2022-09-23T23:53:11.780Z,79.13
2022-09-23T23:56:16.689Z,88.60
2022-09-23T23:59:20.022Z,78.03
